CheckWX is a tool to help pilots better visualize weather data.  It is not intended as a substitute for an official pre-flight weather briefing.

04:51:43 UTC

PASC TAF
Deadhorse Airport
Deadhorse, Alaska, USA
PASC 222327Z 2300/2324 07031G38KT 1/2SM BLSN OVC006 TEMPO 2300/2304 1/4SM BLSN OVC004 FM231000 08022G28KT 1 1/2SM BLSN BKN010 FM231400 08017G23KT 2SM BR OVC007

Mar-23@
00:00 UTC

Mar-23 @ 00:00 UTC

Mar-23@
10:00 UTC

Mar-23 @ 10:00 UTC

PASC 222327Z 2300/2324 07031G38KT 1/2SM BLSN OVC006
Wind
  • 070° at 31 KTS
  • {Gusting to 38 KTS
Conditions
Blowing Snow
Cloud Levels
  • Overcast at 600' AGL

Mar-23@
00:00 UTC

Mar-23 @ 00:00 UTC

Mar-23@
04:00 UTC

Mar-23 @ 04:00 UTC

TEMPO 2300/2304 1/4SM BLSN OVC004

Expired

Conditions
Blowing Snow
Cloud Levels
  • Overcast at 400' AGL

Mar-23@
10:00 UTC

Mar-23 @ 10:00 UTC

Mar-23@
14:00 UTC

Mar-23 @ 14:00 UTC

FM231000 08022G28KT 1 1/2SM BLSN BKN010

From

From Standard forecast or significant change

Wind
  • 080° at 22 KTS
  • {Gusting to 28 KTS
Conditions
Blowing Snow
Cloud Levels
  • Broken at 1,000' AGL

Mar-23@
14:00 UTC

Mar-23 @ 14:00 UTC

Mar-24@
00:00 UTC

Mar-24 @ 00:00 UTC

FM231400 08017G23KT 2SM BR OVC007

From

From Standard forecast or significant change

Wind
  • 080° at 17 KTS
  • {Gusting to 23 KTS
Conditions
Mist
Cloud Levels
  • Overcast at 700' AGL